Time,TemperatureF,DewpointF,PressureIn,WindDirection,WindDirectionDegrees,WindSpeedMPH,WindSpeedGustMPH,Humidity,HourlyPrecipIn,Conditions,Clouds,dailyrainin,SoftwareType,DateUTC
2013-07-28 00:11:00,67.7,60.0,29.91,East,86,2.0,6.0,76,0.00,,,0.00,weatherlink.com 1.10,2013-07-28 04:11:00,
2013-07-28 00:26:00,67.4,60.0,29.90,ESE,107,1.0,6.0,76,0.00,,,0.00,weatherlink.com 1.10,2013-07-28 04:26:00,
2013-07-28 00:41:00,67.7,60.0,29.90,SE,129,1.0,4.0,75,0.00,,,0.00,weatherlink.com 1.10,2013-07-28 04:41:00,
2013-07-28 00:56:00,67.8,60.0,29.90,East,95,2.0,8.0,75,0.00,,,0.00,weatherlink.com 1.10,2013-07-28 04:56:00,
2013-07-28 01:11:00,67.7,60.0,29.90,SW,225,0.0,3.0,75,0.00,,,0.00,weatherlink.com 1.10,2013-07-28 05:11:00,
2013-07-28 01:26:00,67.5,59.0,29.89,SE,144,0.0,6.0,75,0.00,,,0.00,weatherlink.com 1.10,2013-07-28 05:26:00,
2013-07-28 01:41:00,67.2,59.0,29.89,ENE,66,0.0,6.0,75,0.00,,,0.00,weatherlink.com 1.10,2013-07-28 05:41:00,
2013-07-28 01:56:00,67.2,59.0,29.89,WSW,242,0.0,3.0,76,0.00,,,0.00,weatherlink.com 1.10,2013-07-28 05:56:00,
2013-07-28 02:11:00,66.9,59.0,29.89,South,175,1.0,3.0,77,0.00,,,0.00,weatherlink.com 1.10,2013-07-28 06:11:00,
2013-07-28 02:26:00,66.8,59.0,29.88,ESE,107,1.0,6.0,77,0.00,,,0.00,weatherlink.com 1.10,2013-07-28 06:26:00,
2013-07-28 02:41:00,66.8,59.0,29.89,East,98,1.0,8.0,77,0.00,,,0.00,weatherlink.com 1.10,2013-07-28 06:41:00,
2013-07-28 02:56:00,66.8,59.0,29.89,SSE,153,1.0,4.0,77,0.00,,,0.00,weatherlink.com 1.10,2013-07-28 06:56:00,
2013-07-28 03:11:00,66.4,59.0,29.88,ESE,111,3.0,7.0,77,0.00,,,0.00,weatherlink.com 1.10,2013-07-28 07:11:00,
2013-07-28 03:26:00,66.1,59.0,29.88,SE,137,2.0,5.0,77,0.00,,,0.00,weatherlink.com 1.10,2013-07-28 07:26:00,
2013-07-28 03:41:00,65.8,59.0,29.89,SE,144,1.0,8.0,78,0.00,,,0.00,weatherlink.com 1.10,2013-07-28 07:41:00,
2013-07-28 03:56:00,65.9,59.0,29.89,South,179,1.0,6.0,78,0.00,,,0.00,weatherlink.com 1.10,2013-07-28 07:56:00,
2013-07-28 04:11:00,65.9,59.0,29.89,SE,127,2.0,5.0,78,0.00,,,0.00,weatherlink.com 1.10,2013-07-28 08:11:00,
2013-07-28 04:26:00,66.1,59.0,29.88,SSW,207,3.0,6.0,77,0.00,,,0.00,weatherlink.com 1.10,2013-07-28 08:26:00,
2013-07-28 04:56:00,66.2,59.0,29.88,South,180,0.0,6.0,77,0.00,,,0.00,weatherlink.com 1.10,2013-07-28 08:56:00,
2013-07-28 05:11:00,65.6,59.0,29.88,SE,128,1.0,3.0,79,0.00,,,0.00,weatherlink.com 1.10,2013-07-28 09:11:00,
2013-07-28 05:26:00,65.7,59.0,29.88,NE,36,0.0,5.0,78,0.00,,,0.00,weatherlink.com 1.10,2013-07-28 09:26:00,
2013-07-28 05:41:00,65.7,59.0,29.88,NE,53,0.0,3.0,78,0.00,,,0.00,weatherlink.com 1.10,2013-07-28 09:41:00,
2013-07-28 05:56:00,65.4,59.0,29.88,NW,312,1.0,2.0,80,0.00,,,0.00,weatherlink.com 1.10,2013-07-28 09:56:00,
2013-07-28 06:11:00,65.0,59.0,29.89,NW,312,0.0,1.0,81,0.00,,,0.00,weatherlink.com 1.10,2013-07-28 10:11:00,
2013-07-28 06:26:00,64.8,59.0,29.89,WNW,299,1.0,3.0,82,0.00,,,0.00,weatherlink.com 1.10,2013-07-28 10:26:00,
2013-07-28 06:41:00,64.6,60.0,29.90,SW,236,3.0,3.0,84,0.00,,,0.00,weatherlink.com 1.10,2013-07-28 10:41:00,
2013-07-28 06:56:00,64.3,60.0,29.91,SSE,161,2.0,4.0,85,0.01,,,0.01,weatherlink.com 1.10,2013-07-28 10:56:00,
2013-07-28 07:11:00,63.9,60.0,29.91,SSE,168,0.0,3.0,87,0.02,,,0.02,weatherlink.com 1.10,2013-07-28 11:11:00,
2013-07-28 07:26:00,63.4,60.0,29.91,SSE,151,0.0,3.0,89,0.04,,,0.04,weatherlink.com 1.10,2013-07-28 11:26:00,
2013-07-28 07:41:00,63.0,60.0,29.92,WSW,256,0.0,2.0,91,0.06,,,0.06,weatherlink.com 1.10,2013-07-28 11:41:00,
2013-07-28 07:56:00,62.7,60.0,29.92,SSW,213,0.0,5.0,92,0.11,,,0.12,weatherlink.com 1.10,2013-07-28 11:56:00,
2013-07-28 09:11:00,63.9,62.0,29.89,East,89,1.0,8.0,93,0.07,,,0.22,weatherlink.com 1.10,2013-07-28 13:11:00,
2013-07-28 09:26:00,64.2,62.0,29.89,East,94,1.0,5.0,92,0.06,,,0.22,weatherlink.com 1.10,2013-07-28 13:26:00,
2013-07-28 09:57:00,65.2,63.0,29.88,SE,140,2.0,4.0,92,0.01,,,0.23,weatherlink.com 1.10,2013-07-28 13:57:00,
2013-07-28 10:11:00,66.3,63.0,29.88,SSW,192,4.0,12.0,89,0.01,,,0.23,weatherlink.com 1.10,2013-07-28 14:11:00,
2013-07-28 10:27:00,67.1,63.0,29.88,South,169,2.0,10.0,87,0.01,,,0.23,weatherlink.com 1.10,2013-07-28 14:27:00,
2013-07-28 10:42:00,67.4,64.0,29.88,ESE,117,1.0,7.0,87,0.00,,,0.23,weatherlink.com 1.10,2013-07-28 14:42:00,
2013-07-28 10:57:00,67.2,63.0,29.89,East,88,0.0,6.0,87,0.00,,,0.23,weatherlink.com 1.10,2013-07-28 14:57:00,
2013-07-28 11:12:00,66.8,63.0,29.89,SSE,154,3.0,6.0,87,0.00,,,0.23,weatherlink.com 1.10,2013-07-28 15:12:00,
2013-07-28 11:27:00,66.1,63.0,29.89,SSE,162,2.0,7.0,88,0.01,,,0.24,weatherlink.com 1.10,2013-07-28 15:27:00,
2013-07-28 11:42:00,66.0,63.0,29.89,ESE,115,2.0,5.0,91,0.03,,,0.26,weatherlink.com 1.10,2013-07-28 15:42:00,
2013-07-28 11:57:00,66.7,63.0,29.89,SSE,161,2.0,9.0,88,0.03,,,0.26,weatherlink.com 1.10,2013-07-28 15:57:00,
2013-07-28 12:12:00,66.9,63.0,29.88,SE,138,2.0,10.0,87,0.03,,,0.26,weatherlink.com 1.10,2013-07-28 16:12:00,
2013-07-28 12:27:00,67.2,63.0,29.88,SSE,162,0.0,8.0,87,0.02,,,0.26,weatherlink.com 1.10,2013-07-28 16:27:00,
2013-07-28 12:42:00,68.3,63.0,29.88,West,275,2.0,10.0,84,0.00,,,0.26,weatherlink.com 1.10,2013-07-28 16:42:00,
2013-07-28 12:57:00,69.2,64.0,29.89,SW,234,3.0,8.0,83,0.00,,,0.26,weatherlink.com 1.10,2013-07-28 16:57:00,
2013-07-28 13:12:00,69.4,63.0,29.89,WSW,246,0.0,10.0,81,0.00,,,0.26,weatherlink.com 1.10,2013-07-28 17:12:00,
2013-07-28 13:27:00,69.0,64.0,29.89,South,178,2.0,10.0,84,0.00,,,0.26,weatherlink.com 1.10,2013-07-28 17:27:00,
2013-07-28 13:42:00,69.3,63.0,29.89,SSE,166,4.0,6.0,81,0.00,,,0.26,weatherlink.com 1.10,2013-07-28 17:42:00,
2013-07-28 13:57:00,69.5,63.0,29.89,SSE,163,6.0,11.0,81,0.00,,,0.26,weatherlink.com 1.10,2013-07-28 17:57:00,
2013-07-28 14:12:00,68.3,63.0,29.89,SW,227,2.0,8.0,84,0.01,,,0.27,weatherlink.com 1.10,2013-07-28 18:12:00,
2013-07-28 14:27:00,67.6,64.0,29.89,East,96,3.0,6.0,87,0.01,,,0.27,weatherlink.com 1.10,2013-07-28 18:27:00,
2013-07-28 14:42:00,67.8,64.0,29.88,SE,138,1.0,7.0,88,0.01,,,0.27,weatherlink.com 1.10,2013-07-28 18:42:00,
2013-07-28 14:57:00,68.2,64.0,29.88,ESE,103,3.0,5.0,87,0.02,,,0.28,weatherlink.com 1.10,2013-07-28 18:57:00,
2013-07-28 15:12:00,67.4,64.0,29.89,SE,126,4.0,5.0,89,0.02,,,0.29,weatherlink.com 1.10,2013-07-28 19:12:00,
2013-07-28 15:27:00,67.3,65.0,29.88,ESE,107,2.0,5.0,91,0.03,,,0.30,weatherlink.com 1.10,2013-07-28 19:27:00,
2013-07-28 15:42:00,68.4,65.0,29.88,ESE,103,3.0,5.0,90,0.03,,,0.30,weatherlink.com 1.10,2013-07-28 19:42:00,
2013-07-28 15:57:00,68.9,65.0,29.88,SSE,154,1.0,4.0,87,0.02,,,0.30,weatherlink.com 1.10,2013-07-28 19:57:00,
2013-07-28 16:12:00,69.2,65.0,29.88,SE,143,2.0,9.0,87,0.01,,,0.30,weatherlink.com 1.10,2013-07-28 20:12:00,
2013-07-28 16:27:00,69.4,65.0,29.87,SSE,151,1.0,7.0,87,0.00,,,0.30,weatherlink.com 1.10,2013-07-28 20:27:00,
2013-07-28 16:42:00,69.6,66.0,29.87,SE,142,1.0,6.0,87,0.00,,,0.30,weatherlink.com 1.10,2013-07-28 20:42:00,
2013-07-28 16:57:00,70.0,66.0,29.87,SW,219,3.0,8.0,86,0.00,,,0.30,weatherlink.com 1.10,2013-07-28 20:57:00,
2013-07-28 17:12:00,69.8,65.0,29.87,SSW,194,2.0,9.0,85,0.00,,,0.30,weatherlink.com 1.10,2013-07-28 21:12:00,
2013-07-28 17:27:00,69.4,65.0,29.88,South,173,1.0,7.0,87,0.00,,,0.30,weatherlink.com 1.10,2013-07-28 21:27:00,
2013-07-28 17:42:00,68.9,66.0,29.88,SE,136,2.0,4.0,89,0.00,,,0.30,weatherlink.com 1.10,2013-07-28 21:42:00,
2013-07-28 17:57:00,68.4,65.0,29.88,SSE,160,0.0,5.0,90,0.01,,,0.31,weatherlink.com 1.10,2013-07-28 21:57:00,
2013-07-28 18:13:00,68.1,65.0,29.88,SSE,157,1.0,5.0,91,0.01,,,0.31,weatherlink.com 1.10,2013-07-28 22:13:00,
2013-07-28 18:27:00,67.7,65.0,29.88,SE,128,4.0,7.0,92,0.02,,,0.32,weatherlink.com 1.10,2013-07-28 22:27:00,
2013-07-28 18:42:00,67.5,65.0,29.89,ESE,107,2.0,3.0,92,0.03,,,0.33,weatherlink.com 1.10,2013-07-28 22:42:00,
2013-07-28 18:57:00,67.3,65.0,29.89,East,79,6.0,7.0,92,0.02,,,0.33,weatherlink.com 1.10,2013-07-28 22:57:00,
2013-07-28 19:12:00,67.6,65.0,29.89,ESE,121,4.0,8.0,91,0.02,,,0.33,weatherlink.com 1.10,2013-07-28 23:12:00,
2013-07-28 19:27:00,67.6,65.0,29.89,ESE,123,1.0,6.0,91,0.01,,,0.33,weatherlink.com 1.10,2013-07-28 23:27:00,
2013-07-28 19:42:00,67.5,65.0,29.89,East,101,0.0,5.0,91,0.00,,,0.33,weatherlink.com 1.10,2013-07-28 23:42:00,
2013-07-28 19:57:00,67.4,65.0,29.89,ESE,115,1.0,7.0,91,0.00,,,0.33,weatherlink.com 1.10,2013-07-28 23:57:00,
2013-07-28 20:12:00,67.4,65.0,29.90,ESE,109,0.0,5.0,91,0.00,,,0.33,weatherlink.com 1.10,2013-07-29 00:12:00,
2013-07-28 20:27:00,67.3,64.0,29.90,SE,129,3.0,4.0,89,0.00,,,0.33,weatherlink.com 1.10,2013-07-29 00:27:00,
2013-07-28 20:42:00,67.7,64.0,29.91,NNW,339,0.0,8.0,87,0.00,,,0.33,weatherlink.com 1.10,2013-07-29 00:42:00,
2013-07-28 20:57:00,67.8,64.0,29.90,ESE,116,2.0,6.0,87,0.00,,,0.33,weatherlink.com 1.10,2013-07-29 00:57:00,
2013-07-28 21:27:00,67.0,63.0,29.89,South,186,6.0,7.0,88,0.00,,,0.33,weatherlink.com 1.10,2013-07-29 01:27:00,
2013-07-28 21:42:00,68.0,62.0,29.89,SW,229,7.0,13.0,82,0.00,,,0.33,weatherlink.com 1.10,2013-07-29 01:42:00,
2013-07-28 22:12:00,67.6,63.0,29.90,ENE,68,2.0,9.0,85,0.00,,,0.33,weatherlink.com 1.10,2013-07-29 02:12:00,
2013-07-28 22:27:00,67.7,63.0,29.90,SE,131,0.0,5.0,85,0.00,,,0.33,weatherlink.com 1.10,2013-07-29 02:27:00,
2013-07-28 22:42:00,66.8,63.0,29.91,ENE,65,1.0,4.0,87,0.00,,,0.33,weatherlink.com 1.10,2013-07-29 02:42:00,
2013-07-28 22:57:00,67.2,63.0,29.91,SE,138,2.0,9.0,86,0.00,,,0.33,weatherlink.com 1.10,2013-07-29 02:57:00,
2013-07-28 23:12:00,66.9,63.0,29.91,ENE,77,4.0,6.0,87,0.00,,,0.33,weatherlink.com 1.10,2013-07-29 03:12:00,
2013-07-28 23:27:00,66.6,63.0,29.91,ESE,122,3.0,3.0,88,0.00,,,0.33,weatherlink.com 1.10,2013-07-29 03:27:00,
2013-07-28 23:42:00,67.0,63.0,29.90,SW,232,2.0,7.0,86,0.00,,,0.33,weatherlink.com 1.10,2013-07-29 03:42:00,
2013-07-28 23:57:00,68.0,63.0,29.90,SE,124,0.0,7.0,83,0.00,,,0.33,weatherlink.com 1.10,2013-07-29 03:57:00,